sensor_id;sensor_type;location;lat;lon;timestamp;pressure;altitude;pressure_sealevel;temperature;humidity
67430;BME280;54298;52.076;5.264;2023-02-23T00:02:55;101222.0;;;9.52;86.37
67430;BME280;54298;52.076;5.264;2023-02-23T00:04:32;101224.0;;;9.56;86.22
67430;BME280;54298;52.076;5.264;2023-02-23T00:06:09;101225.0;;;9.51;86.45
67430;BME280;54298;52.076;5.264;2023-02-23T00:09:22;101227.0;;;9.41;86.72
67430;BME280;54298;52.076;5.264;2023-02-23T00:10:59;101230.0;;;9.43;86.68
67430;BME280;54298;52.076;5.264;2023-02-23T00:12:35;101231.0;;;9.48;86.48
67430;BME280;54298;52.076;5.264;2023-02-23T00:15:47;101230.0;;;9.48;86.46
67430;BME280;54298;52.076;5.264;2023-02-23T00:17:23;101230.0;;;9.49;86.41
67430;BME280;54298;52.076;5.264;2023-02-23T00:18:59;101227.0;;;9.47;86.51
67430;BME280;54298;52.076;5.264;2023-02-23T00:20:43;101222.0;;;9.39;86.67
67430;BME280;54298;52.076;5.264;2023-02-23T00:23:57;101222.0;;;9.48;86.42
67430;BME280;54298;52.076;5.264;2023-02-23T00:25:37;101216.0;;;9.51;86.32
67430;BME280;54298;52.076;5.264;2023-02-23T00:27:19;101221.0;;;9.44;86.54
67430;BME280;54298;52.076;5.264;2023-02-23T00:28:57;101213.0;;;9.46;86.51
67430;BME280;54298;52.076;5.264;2023-02-23T00:32:10;101211.0;;;9.4;86.75
67430;BME280;54298;52.076;5.264;2023-02-23T00:33:51;101209.0;;;9.42;86.69
67430;BME280;54298;52.076;5.264;2023-02-23T00:35:28;101210.0;;;9.43;86.6
67430;BME280;54298;52.076;5.264;2023-02-23T00:38:40;101208.0;;;9.39;86.68
67430;BME280;54298;52.076;5.264;2023-02-23T00:40:19;101210.0;;;9.39;86.67
67430;BME280;54298;52.076;5.264;2023-02-23T00:41:56;101207.0;;;9.4;86.69
67430;BME280;54298;52.076;5.264;2023-02-23T00:43:34;101208.0;;;9.31;86.86
67430;BME280;54298;52.076;5.264;2023-02-23T00:46:51;101203.0;;;9.24;87.31
67430;BME280;54298;52.076;5.264;2023-02-23T00:48:28;101210.0;;;9.18;87.89
67430;BME280;54298;52.076;5.264;2023-02-23T00:50:05;101210.0;;;9.19;87.89
67430;BME280;54298;52.076;5.264;2023-02-23T00:53:18;101212.0;;;9.22;87.65
67430;BME280;54298;52.076;5.264;2023-02-23T00:54:55;101212.0;;;9.22;87.64
67430;BME280;54298;52.076;5.264;2023-02-23T00:56:32;101213.0;;;9.22;87.37
67430;BME280;54298;52.076;5.264;2023-02-23T00:58:08;101210.0;;;9.28;87.23
67430;BME280;54298;52.076;5.264;2023-02-23T01:01:21;101208.0;;;9.23;87.27
67430;BME280;54298;52.076;5.264;2023-02-23T01:02:58;101212.0;;;9.19;87.3
67430;BME280;54298;52.076;5.264;2023-02-23T01:04:33;101212.0;;;9.02;88.24
67430;BME280;54298;52.076;5.264;2023-02-23T01:07:48;101214.0;;;8.99;88.55
67430;BME280;54298;52.076;5.264;2023-02-23T01:09:27;101210.0;;;8.96;88.95
67430;BME280;54298;52.076;5.264;2023-02-23T01:11:06;101212.0;;;8.92;89.09
67430;BME280;54298;52.076;5.264;2023-02-23T01:14:21;101208.0;;;8.9;89.11
67430;BME280;54298;52.076;5.264;2023-02-23T01:15:58;101206.0;;;8.9;89.13
67430;BME280;54298;52.076;5.264;2023-02-23T01:17:34;101207.0;;;8.75;89.74
67430;BME280;54298;52.076;5.264;2023-02-23T01:19:12;101206.0;;;8.78;89.67
67430;BME280;54298;52.076;5.264;2023-02-23T01:22:25;101211.0;;;8.73;90.18
67430;BME280;54298;52.076;5.264;2023-02-23T01:24:03;101213.0;;;8.81;89.88
67430;BME280;54298;52.076;5.264;2023-02-23T01:25:40;101217.0;;;8.89;89.75
67430;BME280;54298;52.076;5.264;2023-02-23T01:28:56;101216.0;;;8.77;90.08
67430;BME280;54298;52.076;5.264;2023-02-23T01:30:34;101221.0;;;8.9;89.79
67430;BME280;54298;52.076;5.264;2023-02-23T01:32:11;101216.0;;;8.8;90.04
67430;BME280;54298;52.076;5.264;2023-02-23T01:33:51;101216.0;;;8.81;90.1
67430;BME280;54298;52.076;5.264;2023-02-23T01:37:04;101217.0;;;8.86;90.04
67430;BME280;54298;52.076;5.264;2023-02-23T01:38:41;101217.0;;;9.05;89.01
67430;BME280;54298;52.076;5.264;2023-02-23T01:40:27;101219.0;;;8.99;89.06
67430;BME280;54298;52.076;5.264;2023-02-23T01:42:08;101220.0;;;8.84;89.59
67430;BME280;54298;52.076;5.264;2023-02-23T01:45:34;101221.0;;;8.83;89.85
67430;BME280;54298;52.076;5.264;2023-02-23T01:47:13;101222.0;;;8.75;90.13
67430;BME280;54298;52.076;5.264;2023-02-23T01:48:50;101222.0;;;8.73;90.49
67430;BME280;54298;52.076;5.264;2023-02-23T01:53:57;101217.0;;;8.68;90.73
67430;BME280;54298;52.076;5.264;2023-02-23T01:55:35;101216.0;;;8.69;90.8
67430;BME280;54298;52.076;5.264;2023-02-23T01:57:13;101213.0;;;8.72;90.78
67430;BME280;54298;52.076;5.264;2023-02-23T01:58:52;101207.0;;;8.67;90.8
67430;BME280;54298;52.076;5.264;2023-02-23T02:02:13;101212.0;;;8.68;90.94
67430;BME280;54298;52.076;5.264;2023-02-23T02:03:54;101213.0;;;8.82;90.6
67430;BME280;54298;52.076;5.264;2023-02-23T02:05:32;101215.0;;;8.76;90.55
67430;BME280;54298;52.076;5.264;2023-02-23T02:07:10;101216.0;;;8.76;90.79
67430;BME280;54298;52.076;5.264;2023-02-23T02:10:45;101217.0;;;8.96;90.21
67430;BME280;54298;52.076;5.264;2023-02-23T02:12:22;101223.0;;;8.94;89.91
67430;BME280;54298;52.076;5.264;2023-02-23T02:14:01;101221.0;;;9.06;89.51
67430;BME280;54298;52.076;5.264;2023-02-23T02:15:47;101224.0;;;9.06;89.36
67430;BME280;54298;52.076;5.264;2023-02-23T02:17:42;101231.0;;;9.14;88.97
67430;BME280;54298;52.076;5.264;2023-02-23T02:23:50;101228.0;;;9.16;88.69
67430;BME280;54298;52.076;5.264;2023-02-23T02:27:40;101234.0;;;9.23;88.37
67430;BME280;54298;52.076;5.264;2023-02-23T02:29:53;101236.0;;;9.18;88.48
67430;BME280;54298;52.076;5.264;2023-02-23T02:39:42;101228.0;;;8.93;90.03
67430;BME280;54298;52.076;5.264;2023-02-23T02:41:30;101226.0;;;8.99;89.77
67430;BME280;54298;52.076;5.264;2023-02-23T02:43:15;101230.0;;;9.06;89.38
67430;BME280;54298;52.076;5.264;2023-02-23T02:44:58;101224.0;;;9.06;89.13
67430;BME280;54298;52.076;5.264;2023-02-23T02:48:31;101222.0;;;8.81;90.51
67430;BME280;54298;52.076;5.264;2023-02-23T02:50:16;101222.0;;;8.91;90.45
67430;BME280;54298;52.076;5.264;2023-02-23T02:52:00;101222.0;;;9.02;89.78
67430;BME280;54298;52.076;5.264;2023-02-23T02:53:47;101224.0;;;9.07;89.37
67430;BME280;54298;52.076;5.264;2023-02-23T02:55:28;101228.0;;;9.11;89.28
67430;BME280;54298;52.076;5.264;2023-02-23T02:58:51;101227.0;;;9.17;89.04
67430;BME280;54298;52.076;5.264;2023-02-23T04:17:41;101247.0;;;8.68;92.41
67430;BME280;54298;52.076;5.264;2023-02-23T04:19:18;101247.0;;;8.67;92.51
67430;BME280;54298;52.076;5.264;2023-02-23T04:22:34;101250.0;;;8.77;91.83
67430;BME280;54298;52.076;5.264;2023-02-23T04:24:10;101250.0;;;8.88;91.42
67430;BME280;54298;52.076;5.264;2023-02-23T04:25:47;101252.0;;;9.01;90.85
67430;BME280;54298;52.076;5.264;2023-02-23T04:27:24;101255.0;;;8.9;90.88
67430;BME280;54298;52.076;5.264;2023-02-23T04:30:36;101252.0;;;8.96;90.78
67430;BME280;54298;52.076;5.264;2023-02-23T04:32:14;101258.0;;;8.98;90.64
67430;BME280;54298;52.076;5.264;2023-02-23T04:33:51;101266.0;;;9.1;90.12
67430;BME280;54298;52.076;5.264;2023-02-23T04:37:06;101264.0;;;9.02;90.13
67430;BME280;54298;52.076;5.264;2023-02-23T04:38:43;101260.0;;;9.02;90.29
67430;BME280;54298;52.076;5.264;2023-02-23T04:40:19;101262.0;;;9.06;90.14
67430;BME280;54298;52.076;5.264;2023-02-23T04:43:31;101266.0;;;8.99;90.25
67430;BME280;54298;52.076;5.264;2023-02-23T04:45:08;101265.0;;;8.96;90.63
67430;BME280;54298;52.076;5.264;2023-02-23T04:46:45;101262.0;;;8.96;90.56
67430;BME280;54298;52.076;5.264;2023-02-23T04:48:24;101266.0;;;8.99;90.72
67430;BME280;54298;52.076;5.264;2023-02-23T04:51:36;101269.0;;;9.09;90.26
67430;BME280;54298;52.076;5.264;2023-02-23T04:53:13;101267.0;;;8.99;90.5
67430;BME280;54298;52.076;5.264;2023-02-23T04:54:49;101272.0;;;8.96;90.62
67430;BME280;54298;52.076;5.264;2023-02-23T04:58:01;101276.0;;;8.91;90.85
67430;BME280;54298;52.076;5.264;2023-02-23T04:59:38;101277.0;;;8.86;91.15
67430;BME280;54298;52.076;5.264;2023-02-23T05:01:14;101273.0;;;8.98;90.55
67430;BME280;54298;52.076;5.264;2023-02-23T05:04:27;101274.0;;;8.98;90.46
67430;BME280;54298;52.076;5.264;2023-02-23T05:06:04;101274.0;;;8.96;90.83
67430;BME280;54298;52.076;5.264;2023-02-23T05:07:41;101276.0;;;9.06;90.41
67430;BME280;54298;52.076;5.264;2023-02-23T05:09:17;101278.0;;;8.99;90.44
67430;BME280;54298;52.076;5.264;2023-02-23T05:12:30;101276.0;;;9.06;90.2
67430;BME280;54298;52.076;5.264;2023-02-23T05:14:07;101275.0;;;8.98;90.47
67430;BME280;54298;52.076;5.264;2023-02-23T05:15:43;101280.0;;;8.92;90.98
67430;BME280;54298;52.076;5.264;2023-02-23T05:18:56;101284.0;;;8.89;91.27
67430;BME280;54298;52.076;5.264;2023-02-23T05:20:33;101284.0;;;9.0;91.08
67430;BME280;54298;52.076;5.264;2023-02-23T05:22:11;101284.0;;;8.89;91.31
67430;BME280;54298;52.076;5.264;2023-02-23T05:23:47;101282.0;;;8.98;90.95
67430;BME280;54298;52.076;5.264;2023-02-23T05:27:00;101283.0;;;8.84;91.29
67430;BME280;54298;52.076;5.264;2023-02-23T05:28:38;101288.0;;;8.92;91.11
67430;BME280;54298;52.076;5.264;2023-02-23T05:30:16;101286.0;;;8.88;91.07
67430;BME280;54298;52.076;5.264;2023-02-23T05:33:28;101290.0;;;8.78;91.8
67430;BME280;54298;52.076;5.264;2023-02-23T05:35:05;101291.0;;;8.77;91.79
67430;BME280;54298;52.076;5.264;2023-02-23T05:36:41;101288.0;;;8.76;91.88
67430;BME280;54298;52.076;5.264;2023-02-23T05:39:56;101293.0;;;8.65;92.6
67430;BME280;54298;52.076;5.264;2023-02-23T05:41:33;101289.0;;;8.74;92.39
67430;BME280;54298;52.076;5.264;2023-02-23T05:43:09;101289.0;;;8.66;92.47
67430;BME280;54298;52.076;5.264;2023-02-23T05:44:45;101286.0;;;8.63;92.68
67430;BME280;54298;52.076;5.264;2023-02-23T05:48:01;101288.0;;;8.64;92.64
67430;BME280;54298;52.076;5.264;2023-02-23T05:49:38;101293.0;;;8.61;92.7
67430;BME280;54298;52.076;5.264;2023-02-23T05:51:15;101288.0;;;8.59;92.97
67430;BME280;54298;52.076;5.264;2023-02-23T05:54:28;101295.0;;;8.65;93.05
67430;BME280;54298;52.076;5.264;2023-02-23T05:56:07;101290.0;;;8.66;92.75
67430;BME280;54298;52.076;5.264;2023-02-23T05:57:46;101300.0;;;8.72;92.47
67430;BME280;54298;52.076;5.264;2023-02-23T05:59:22;101292.0;;;8.65;92.96
67430;BME280;54298;52.076;5.264;2023-02-23T06:02:35;101301.0;;;8.61;92.59
67430;BME280;54298;52.076;5.264;2023-02-23T06:04:11;101305.0;;;8.65;92.66
67430;BME280;54298;52.076;5.264;2023-02-23T06:05:49;101305.0;;;8.68;92.51
67430;BME280;54298;52.076;5.264;2023-02-23T06:09:02;101301.0;;;8.82;91.79
67430;BME280;54298;52.076;5.264;2023-02-23T06:10:39;101308.0;;;8.86;91.5
67430;BME280;54298;52.076;5.264;2023-02-23T06:12:15;101305.0;;;8.76;91.72
67430;BME280;54298;52.076;5.264;2023-02-23T06:15:27;101307.0;;;8.72;91.79
67430;BME280;54298;52.076;5.264;2023-02-23T06:17:04;101309.0;;;8.64;92.17
67430;BME280;54298;52.076;5.264;2023-02-23T06:18:42;101309.0;;;8.82;91.55
67430;BME280;54298;52.076;5.264;2023-02-23T06:20:18;101313.0;;;8.88;91.2
67430;BME280;54298;52.076;5.264;2023-02-23T06:23:31;101310.0;;;8.88;91.05
67430;BME280;54298;52.076;5.264;2023-02-23T06:25:11;101310.0;;;8.78;91.28
67430;BME280;54298;52.076;5.264;2023-02-23T06:26:48;101317.0;;;8.8;91.28
67430;BME280;54298;52.076;5.264;2023-02-23T06:30:03;101320.0;;;8.85;90.79
67430;BME280;54298;52.076;5.264;2023-02-23T06:31:39;101322.0;;;8.71;91.58
67430;BME280;54298;52.076;5.264;2023-02-23T06:33:17;101324.0;;;8.64;92.08
67430;BME280;54298;52.076;5.264;2023-02-23T06:36:29;101326.0;;;8.63;92.26
67430;BME280;54298;52.076;5.264;2023-02-23T06:38:05;101324.0;;;8.67;92.1
67430;BME280;54298;52.076;5.264;2023-02-23T06:39:41;101331.0;;;8.68;91.99
67430;BME280;54298;52.076;5.264;2023-02-23T06:41:17;101332.0;;;8.65;92.36
67430;BME280;54298;52.076;5.264;2023-02-23T06:46:06;101331.0;;;8.63;92.72
67430;BME280;54298;52.076;5.264;2023-02-23T06:47:44;101337.0;;;8.69;92.53
67430;BME280;54298;52.076;5.264;2023-02-23T06:50:57;101338.0;;;8.73;91.92
67430;BME280;54298;52.076;5.264;2023-02-23T06:52:33;101337.0;;;8.78;91.96
67430;BME280;54298;52.076;5.264;2023-02-23T06:54:10;101333.0;;;8.74;91.97
67430;BME280;54298;52.076;5.264;2023-02-23T06:57:23;101340.0;;;8.71;92.33
67430;BME280;54298;52.076;5.264;2023-02-23T06:58:59;101337.0;;;8.8;92.07
67430;BME280;54298;52.076;5.264;2023-02-23T07:00:35;101337.0;;;8.78;91.8
67430;BME280;54298;52.076;5.264;2023-02-23T07:02:12;101336.0;;;8.74;91.89
67430;BME280;54298;52.076;5.264;2023-02-23T07:05:24;101339.0;;;8.6;92.71
67430;BME280;54298;52.076;5.264;2023-02-23T07:07:01;101345.0;;;8.68;92.71
67430;BME280;54298;52.076;5.264;2023-02-23T07:08:38;101350.0;;;8.81;92.17
67430;BME280;54298;52.076;5.264;2023-02-23T07:13:27;101358.0;;;8.89;91.95
67430;BME280;54298;52.076;5.264;2023-02-23T07:15:04;101355.0;;;8.83;92.03
67430;BME280;54298;52.076;5.264;2023-02-23T07:18:16;101366.0;;;8.92;91.64
67430;BME280;54298;52.076;5.264;2023-02-23T07:19:53;101371.0;;;8.94;91.65
67430;BME280;54298;52.076;5.264;2023-02-23T07:21:31;101375.0;;;9.02;91.23
67430;BME280;54298;52.076;5.264;2023-02-23T07:23:08;101373.0;;;8.98;91.5
67430;BME280;54298;52.076;5.264;2023-02-23T07:26:22;101380.0;;;9.08;91.19
67430;BME280;54298;52.076;5.264;2023-02-23T07:27:59;101381.0;;;9.05;90.83
67430;BME280;54298;52.076;5.264;2023-02-23T07:29:36;101388.0;;;9.1;91.17
67430;BME280;54298;52.076;5.264;2023-02-23T07:32:50;101385.0;;;8.99;91.29
67430;BME280;54298;52.076;5.264;2023-02-23T07:34:27;101392.0;;;8.89;91.86
67430;BME280;54298;52.076;5.264;2023-02-23T07:36:03;101391.0;;;8.86;92.09
67430;BME280;54298;52.076;5.264;2023-02-23T07:37:41;101396.0;;;8.93;92.0
67430;BME280;54298;52.076;5.264;2023-02-23T07:40:54;101401.0;;;8.94;91.45
67430;BME280;54298;52.076;5.264;2023-02-23T07:42:30;101403.0;;;8.91;91.75
67430;BME280;54298;52.076;5.264;2023-02-23T07:44:06;101402.0;;;8.94;91.6
67430;BME280;54298;52.076;5.264;2023-02-23T07:47:19;101407.0;;;9.07;91.44
67430;BME280;54298;52.076;5.264;2023-02-23T07:48:55;101409.0;;;9.16;90.94
67430;BME280;54298;52.076;5.264;2023-02-23T07:50:32;101410.0;;;9.11;90.68
67430;BME280;54298;52.076;5.264;2023-02-23T07:53:45;101409.0;;;9.18;90.72
67430;BME280;54298;52.076;5.264;2023-02-23T07:55:21;101416.0;;;9.19;90.48
67430;BME280;54298;52.076;5.264;2023-02-23T07:56:58;101416.0;;;9.28;90.16
67430;BME280;54298;52.076;5.264;2023-02-23T08:00:13;101421.0;;;9.32;89.65
67430;BME280;54298;52.076;5.264;2023-02-23T08:01:50;101422.0;;;9.31;89.68
67430;BME280;54298;52.076;5.264;2023-02-23T08:03:27;101421.0;;;9.34;89.54
67430;BME280;54298;52.076;5.264;2023-02-23T08:05:05;101424.0;;;9.32;89.39
67430;BME280;54298;52.076;5.264;2023-02-23T08:08:17;101423.0;;;9.46;89.12
67430;BME280;54298;52.076;5.264;2023-02-23T08:09:53;101423.0;;;9.41;88.82
67430;BME280;54298;52.076;5.264;2023-02-23T08:11:30;101425.0;;;9.4;89.15
67430;BME280;54298;52.076;5.264;2023-02-23T08:14:43;101426.0;;;9.38;89.33
67430;BME280;54298;52.076;5.264;2023-02-23T08:16:19;101432.0;;;9.38;89.21
67430;BME280;54298;52.076;5.264;2023-02-23T08:17:55;101434.0;;;9.24;89.73
67430;BME280;54298;52.076;5.264;2023-02-23T08:19:33;101439.0;;;9.3;90.07
67430;BME280;54298;52.076;5.264;2023-02-23T08:22:46;101437.0;;;9.28;90.02
67430;BME280;54298;52.076;5.264;2023-02-23T08:24:22;101437.0;;;9.34;89.81
67430;BME280;54298;52.076;5.264;2023-02-23T08:26:00;101444.0;;;9.39;89.44
67430;BME280;54298;52.076;5.264;2023-02-23T08:29:15;101444.0;;;9.39;89.47
67430;BME280;54298;52.076;5.264;2023-02-23T08:30:52;101451.0;;;9.42;89.03
67430;BME280;54298;52.076;5.264;2023-02-23T08:32:32;101456.0;;;9.48;88.74
67430;BME280;54298;52.076;5.264;2023-02-23T08:34:09;101459.0;;;9.41;88.79
67430;BME280;54298;52.076;5.264;2023-02-23T08:37:22;101452.0;;;9.46;88.72
67430;BME280;54298;52.076;5.264;2023-02-23T08:38:59;101455.0;;;9.46;88.85
67430;BME280;54298;52.076;5.264;2023-02-23T08:40:36;101457.0;;;9.47;88.91
67430;BME280;54298;52.076;5.264;2023-02-23T08:43:49;101455.0;;;9.49;88.78
67430;BME280;54298;52.076;5.264;2023-02-23T08:45:28;101455.0;;;9.35;88.94
67430;BME280;54298;52.076;5.264;2023-02-23T08:47:04;101458.0;;;9.44;88.59
67430;BME280;54298;52.076;5.264;2023-02-23T08:50:17;101461.0;;;9.46;88.56
67430;BME280;54298;52.076;5.264;2023-02-23T08:51:53;101461.0;;;9.41;88.86
67430;BME280;54298;52.076;5.264;2023-02-23T08:53:29;101459.0;;;9.55;88.37
67430;BME280;54298;52.076;5.264;2023-02-23T08:55:07;101459.0;;;9.55;88.28
67430;BME280;54298;52.076;5.264;2023-02-23T08:58:20;101461.0;;;9.51;88.28
67430;BME280;54298;52.076;5.264;2023-02-23T08:59:57;101468.0;;;9.59;88.0
67430;BME280;54298;52.076;5.264;2023-02-23T09:01:33;101469.0;;;9.58;88.06
67430;BME280;54298;52.076;5.264;2023-02-23T09:04:45;101474.0;;;9.43;87.74
67430;BME280;54298;52.076;5.264;2023-02-23T09:06:23;101476.0;;;9.49;88.0
67430;BME280;54298;52.076;5.264;2023-02-23T09:08:01;101482.0;;;9.55;87.87
67430;BME280;54298;52.076;5.264;2023-02-23T09:11:13;101480.0;;;9.53;87.9
67430;BME280;54298;52.076;5.264;2023-02-23T09:12:49;101480.0;;;9.53;88.19
67430;BME280;54298;52.076;5.264;2023-02-23T09:14:26;101480.0;;;9.64;87.95
67430;BME280;54298;52.076;5.264;2023-02-23T09:16:04;101487.0;;;9.58;88.04
67430;BME280;54298;52.076;5.264;2023-02-23T09:19:20;101487.0;;;9.66;87.72
67430;BME280;54298;52.076;5.264;2023-02-23T09:20:57;101488.0;;;9.65;87.73
67430;BME280;54298;52.076;5.264;2023-02-23T09:22:34;101488.0;;;9.57;87.57
67430;BME280;54298;52.076;5.264;2023-02-23T09:25:47;101496.0;;;9.56;87.64
67430;BME280;54298;52.076;5.264;2023-02-23T09:27:23;101493.0;;;9.61;87.74
67430;BME280;54298;52.076;5.264;2023-02-23T09:29:00;101493.0;;;9.76;87.61
67430;BME280;54298;52.076;5.264;2023-02-23T09:30:39;101495.0;;;9.53;87.46
67430;BME280;54298;52.076;5.264;2023-02-23T09:33:52;101497.0;;;9.73;87.85
67430;BME280;54298;52.076;5.264;2023-02-23T09:35:29;101497.0;;;9.73;87.09
67430;BME280;54298;52.076;5.264;2023-02-23T09:37:05;101502.0;;;9.72;86.92
67430;BME280;54298;52.076;5.264;2023-02-23T09:40:22;101506.0;;;9.78;86.65
67430;BME280;54298;52.076;5.264;2023-02-23T09:42:07;101503.0;;;9.73;86.75
67430;BME280;54298;52.076;5.264;2023-02-23T09:43:56;101506.0;;;9.73;86.91
67430;BME280;54298;52.076;5.264;2023-02-23T09:45:38;101505.0;;;9.9;86.55
67430;BME280;54298;52.076;5.264;2023-02-23T09:49:11;101509.0;;;9.89;86.51
67430;BME280;54298;52.076;5.264;2023-02-23T09:50:52;101510.0;;;9.84;86.79
67430;BME280;54298;52.076;5.264;2023-02-23T09:52:37;101505.0;;;9.89;87.24
67430;BME280;54298;52.076;5.264;2023-02-23T09:54:16;101505.0;;;9.93;86.92
67430;BME280;54298;52.076;5.264;2023-02-23T09:55:55;101507.0;;;10.0;86.44
67430;BME280;54298;52.076;5.264;2023-02-23T09:59:16;101508.0;;;10.02;85.6
67430;BME280;54298;52.076;5.264;2023-02-23T10:01:06;101508.0;;;9.98;85.09
67430;BME280;54298;52.076;5.264;2023-02-23T10:03:55;101508.0;;;9.97;85.09
67430;BME280;54298;52.076;5.264;2023-02-23T10:05:39;101506.0;;;10.01;85.33
67430;BME280;54298;52.076;5.264;2023-02-23T10:07:23;101507.0;;;10.15;85.2
67430;BME280;54298;52.076;5.264;2023-02-23T10:09:11;101513.0;;;10.14;85.27
67430;BME280;54298;52.076;5.264;2023-02-23T10:10:59;101511.0;;;10.14;84.59
67430;BME280;54298;52.076;5.264;2023-02-23T10:12:48;101512.0;;;10.21;84.43
67430;BME280;54298;52.076;5.264;2023-02-23T10:16:44;101514.0;;;10.18;84.77
67430;BME280;54298;52.076;5.264;2023-02-23T10:18:36;101514.0;;;10.07;84.99
67430;BME280;54298;52.076;5.264;2023-02-23T10:20:20;101516.0;;;10.11;84.53
67430;BME280;54298;52.076;5.264;2023-02-23T10:22:03;101519.0;;;10.17;84.81
67430;BME280;54298;52.076;5.264;2023-02-23T10:23:45;101513.0;;;10.08;84.78
67430;BME280;54298;52.076;5.264;2023-02-23T10:25:28;101517.0;;;10.13;84.33
67430;BME280;54298;52.076;5.264;2023-02-23T10:28:50;101516.0;;;10.11;83.85
67430;BME280;54298;52.076;5.264;2023-02-23T10:30:31;101515.0;;;10.1;84.27
67430;BME280;54298;52.076;5.264;2023-02-23T10:32:15;101525.0;;;10.14;84.12
67430;BME280;54298;52.076;5.264;2023-02-23T10:33:57;101531.0;;;10.06;83.37
67430;BME280;54298;52.076;5.264;2023-02-23T10:35:36;101532.0;;;10.14;83.23
67430;BME280;54298;52.076;5.264;2023-02-23T10:38:51;101534.0;;;10.21;83.36
67430;BME280;54298;52.076;5.264;2023-02-23T10:40:31;101532.0;;;10.19;83.83
67430;BME280;54298;52.076;5.264;2023-02-23T10:42:14;101528.0;;;10.14;83.86
67430;BME280;54298;52.076;5.264;2023-02-23T10:43:52;101528.0;;;10.23;83.24
67430;BME280;54298;52.076;5.264;2023-02-23T10:47:13;101530.0;;;10.1;82.28
67430;BME280;54298;52.076;5.264;2023-02-23T10:48:51;101532.0;;;10.14;82.64
67430;BME280;54298;52.076;5.264;2023-02-23T10:50:30;101531.0;;;10.1;82.16
67430;BME280;54298;52.076;5.264;2023-02-23T10:54:33;101540.0;;;9.99;82.62
67430;BME280;54298;52.076;5.264;2023-02-23T10:56:11;101538.0;;;10.17;81.5
67430;BME280;54298;52.076;5.264;2023-02-23T10:58:00;101540.0;;;10.02;80.81
67430;BME280;54298;52.076;5.264;2023-02-23T11:00:00;101539.0;;;10.14;81.27
67430;BME280;54298;52.076;5.264;2023-02-23T11:01:39;101544.0;;;10.1;82.08
67430;BME280;54298;52.076;5.264;2023-02-23T11:03:22;101539.0;;;10.14;81.58
67430;BME280;54298;52.076;5.264;2023-02-23T11:05:01;101539.0;;;10.06;81.74
67430;BME280;54298;52.076;5.264;2023-02-23T11:08:22;101538.0;;;10.15;81.93
67430;BME280;54298;52.076;5.264;2023-02-23T11:10:24;101531.0;;;10.23;82.36
67430;BME280;54298;52.076;5.264;2023-02-23T11:12:03;101534.0;;;10.25;81.77
67430;BME280;54298;52.076;5.264;2023-02-23T11:13:55;101533.0;;;10.25;81.55
67430;BME280;54298;52.076;5.264;2023-02-23T11:15:32;101533.0;;;10.39;80.75
67430;BME280;54298;52.076;5.264;2023-02-23T11:19:06;101531.0;;;10.45;80.41
67430;BME280;54298;52.076;5.264;2023-02-23T11:20:54;101530.0;;;10.51;80.83
67430;BME280;54298;52.076;5.264;2023-02-23T11:22:34;101526.0;;;10.56;80.81
67430;BME280;54298;52.076;5.264;2023-02-23T11:24:17;101532.0;;;10.51;80.61
67430;BME280;54298;52.076;5.264;2023-02-23T11:26:00;101535.0;;;10.61;78.97
67430;BME280;54298;52.076;5.264;2023-02-23T11:29:26;101541.0;;;10.69;78.8
67430;BME280;54298;52.076;5.264;2023-02-23T11:31:13;101541.0;;;10.73;77.44
67430;BME280;54298;52.076;5.264;2023-02-23T11:32:53;101548.0;;;10.7;76.75
67430;BME280;54298;52.076;5.264;2023-02-23T11:34:34;101550.0;;;10.69;76.02
67430;BME280;54298;52.076;5.264;2023-02-23T11:36:15;101540.0;;;10.58;75.86
67430;BME280;54298;52.076;5.264;2023-02-23T11:39:30;101541.0;;;10.24;77.25
67430;BME280;54298;52.076;5.264;2023-02-23T11:41:18;101545.0;;;10.46;76.3
67430;BME280;54298;52.076;5.264;2023-02-23T11:43:06;101546.0;;;10.53;76.73
67430;BME280;54298;52.076;5.264;2023-02-23T11:44:49;101548.0;;;10.44;76.36
67430;BME280;54298;52.076;5.264;2023-02-23T11:48:04;101546.0;;;10.42;76.52
67430;BME280;54298;52.076;5.264;2023-02-23T11:49:43;101544.0;;;10.34;76.92
67430;BME280;54298;52.076;5.264;2023-02-23T11:51:24;101546.0;;;10.15;77.83
67430;BME280;54298;52.076;5.264;2023-02-23T11:53:03;101545.0;;;10.18;78.05
67430;BME280;54298;52.076;5.264;2023-02-23T11:56:28;101544.0;;;10.26;77.99
67430;BME280;54298;52.076;5.264;2023-02-23T11:58:09;101547.0;;;10.19;79.12
67430;BME280;54298;52.076;5.264;2023-02-23T11:59:58;101542.0;;;10.15;78.86
67430;BME280;54298;52.076;5.264;2023-02-23T12:01:39;101542.0;;;9.89;78.84
67430;BME280;54298;52.076;5.264;2023-02-23T12:05:04;101540.0;;;10.03;78.83
67430;BME280;54298;52.076;5.264;2023-02-23T12:06:44;101543.0;;;9.98;79.0
67430;BME280;54298;52.076;5.264;2023-02-23T12:08:29;101548.0;;;9.81;78.77
67430;BME280;54298;52.076;5.264;2023-02-23T12:10:13;101550.0;;;10.02;78.64
67430;BME280;54298;52.076;5.264;2023-02-23T12:11:59;101543.0;;;9.98;79.02
67430;BME280;54298;52.076;5.264;2023-02-23T12:15:25;101545.0;;;10.11;78.81
67430;BME280;54298;52.076;5.264;2023-02-23T12:17:11;101539.0;;;10.06;78.78
67430;BME280;54298;52.076;5.264;2023-02-23T12:18:54;101542.0;;;10.09;78.69
67430;BME280;54298;52.076;5.264;2023-02-23T12:20:37;101543.0;;;10.06;79.52
67430;BME280;54298;52.076;5.264;2023-02-23T12:22:22;101537.0;;;9.92;79.86
67430;BME280;54298;52.076;5.264;2023-02-23T12:26:08;101538.0;;;9.92;79.22
67430;BME280;54298;52.076;5.264;2023-02-23T12:27:50;101545.0;;;9.91;80.16
67430;BME280;54298;52.076;5.264;2023-02-23T12:29:36;101541.0;;;10.05;80.34
67430;BME280;54298;52.076;5.264;2023-02-23T12:31:22;101540.0;;;10.06;81.33
67430;BME280;54298;52.076;5.264;2023-02-23T12:33:04;101540.0;;;10.13;80.86
67430;BME280;54298;52.076;5.264;2023-02-23T12:34:48;101535.0;;;9.99;80.49
67430;BME280;54298;52.076;5.264;2023-02-23T12:38:20;101537.0;;;10.08;80.03
67430;BME280;54298;52.076;5.264;2023-02-23T12:40:06;101538.0;;;10.24;79.25
67430;BME280;54298;52.076;5.264;2023-02-23T12:41:54;101536.0;;;10.37;79.3
67430;BME280;54298;52.076;5.264;2023-02-23T12:43:38;101535.0;;;10.39;79.08
67430;BME280;54298;52.076;5.264;2023-02-23T12:45:22;101540.0;;;10.43;77.05
67430;BME280;54298;52.076;5.264;2023-02-23T12:49:03;101540.0;;;10.33;76.3
67430;BME280;54298;52.076;5.264;2023-02-23T12:50:45;101544.0;;;10.23;77.05